Littlefork, Minnesota
Current Conditions -  °F | °C
As of 1:55 AM on Thursday 29 Jan 2015 (Local Time) from KINL Reporting Station
Overcast Overcast  
Wind Chill: 17°   Ceiling: 1700
Heat Index: 28°   Visibility: 10mi
Dew Point: 22°   Wind: 14mph
Humidity: 78%   Direction: 330°NNW
Pressure: 29.92"   Gusts: NA
Location:  48.4°N, 93.56°W
Report Text: KINL 290755Z AUTO 33012KT 10SM OVC017 M02/M06 A2992 RMK AO2 SLP152 T10221056
Loading
Personal Weather Stations






























Interactive Weather Map New forecast layout! Learn more

10-Day Weather Forecast

Advertisements
Track Severe Weather on mobile